Airfield :







YOU CAN JOIN US ON...

 
LOGIN :

Register | Disclaimer

   EN    FR    IT 

 









Legend :    VFR   Marginal VFR   IFR   Intensive IFR   Very Intensive IFR
Visi :
Ceiling :
>= 8 km
>= 3000ft
5 to 8 km
1000 to 3000 ft
1500m to 5 km
500 to 1000 ft
800 to 1500m
200 to 500 ft
< 800m
< 200 ft
Symbols :   Thunderstorms  Fog  Heavy snow  Heavy precipitations  Wind > 20 kt






- Airport Elevation : 76 ft
- IATA code : PWM


KPWM - Portland International Jetport

CURRENT METAR :
  • 070951Z 35007KT 10SM BKN060 BKN110 16/12 A2976 RMK AO2 SLP077 T01560122

EXPIRED METARs :
  • 070851Z 33007KT 10SM FEW085 BKN110 16/12 A2973 RMK AO2 SLP068 T01560117 53003
  • 070751Z AUTO 33009KT 10SM OVC100 16/12 A2972 RMK AO2 SLP063 T01560117

TAF KPWM
Valid from the 07 at 09:00 until the 08 at 06:00 UTC


070854Z 0709/0806 34008KT P6SM BKN100
FM071800 01012KT P6SM BKN060
KZBW FIR / North America



MET'MAP, your aeronautical weather chart ! - Copyright ORBIFLY December 2007 - Disclaimer

ORBIFLY MET'MAP TEAM :

Programming & Development : Alexandra Zaïnal
Concept & original design : Baudouin d'Aumeries
Assistance for programming : Marc-Olivier Méhu
Technical & hardware support : Manuel Goepfert

Contact : metmap@orbifly.com




SOURCES & CREDITS :

   NOAA